createdAt,value
2022-10-29T00:02:17.757Z,17.20
2022-10-29T00:07:19.464Z,17.10
2022-10-29T00:12:21.185Z,17.60
2022-10-29T00:17:22.904Z,18.10
2022-10-29T00:22:24.661Z,17.70
2022-10-29T00:27:26.684Z,17.10
2022-10-29T00:32:28.445Z,16.50
2022-10-29T00:37:30.152Z,16.10
2022-10-29T00:42:31.852Z,15.70
2022-10-29T00:47:36.973Z,15.50
2022-10-29T00:52:43.494Z,15.30
2022-10-29T00:57:50.321Z,15.10
2022-10-29T01:02:53.012Z,15.00
2022-10-29T01:07:56.070Z,15.10
2022-10-29T01:13:28.144Z,15.20
2022-10-29T01:18:37.609Z,15.30
2022-10-29T01:23:55.484Z,15.40
2022-10-29T01:29:19.635Z,15.20
2022-10-29T01:34:37.470Z,15.00
2022-10-29T01:39:50.453Z,15.00
2022-10-29T01:45:19.241Z,14.90
2022-10-29T01:50:23.492Z,14.80
2022-10-29T01:55:32.038Z,14.70
2022-10-29T02:00:55.107Z,14.80
2022-10-29T02:06:05.304Z,14.80
2022-10-29T02:11:31.787Z,14.90
2022-10-29T02:16:34.332Z,14.80
2022-10-29T02:21:36.032Z,14.60
2022-10-29T02:26:37.883Z,14.60
2022-10-29T02:31:39.611Z,14.60
2022-10-29T02:36:41.343Z,14.40
2022-10-29T02:41:43.108Z,14.30
2022-10-29T02:46:44.861Z,14.20
2022-10-29T02:51:46.726Z,14.00
2022-10-29T02:56:48.436Z,13.90
2022-10-29T03:01:50.280Z,13.60
2022-10-29T03:06:52.444Z,13.50
2022-10-29T03:11:54.216Z,13.60
2022-10-29T03:16:55.914Z,13.50
2022-10-29T03:21:57.619Z,13.50
2022-10-29T03:26:59.356Z,13.40
2022-10-29T03:32:01.085Z,13.60
2022-10-29T03:37:02.861Z,13.60
2022-10-29T03:42:04.815Z,13.40
2022-10-29T03:47:08.359Z,13.30
2022-10-29T03:52:10.122Z,13.40
2022-10-29T03:57:12.148Z,13.20
2022-10-29T04:02:14.319Z,13.00
2022-10-29T04:07:16.615Z,13.10
2022-10-29T04:12:18.359Z,13.20
2022-10-29T04:17:20.084Z,13.20
2022-10-29T04:33:05.504Z,13.40
2022-10-29T04:38:11.484Z,13.40
2022-10-29T04:43:13.581Z,13.40
2022-10-29T04:48:15.275Z,13.40
2022-10-29T04:53:17.500Z,13.40
2022-10-29T04:58:20.226Z,13.30
2022-10-29T05:03:22.039Z,13.20
2022-10-29T05:08:24.410Z,13.20
2022-10-29T05:13:26.171Z,13.30
2022-10-29T05:18:27.959Z,13.30
2022-10-29T05:23:29.701Z,13.40
2022-10-29T05:28:32.209Z,13.40
2022-10-29T05:33:33.907Z,13.40
2022-10-29T05:38:35.885Z,13.50
2022-10-29T05:43:37.604Z,13.40
2022-10-29T05:48:39.298Z,13.40
2022-10-29T05:53:41.375Z,13.30
2022-10-29T05:58:43.247Z,13.30
2022-10-29T06:03:45.477Z,13.30
2022-10-29T06:08:47.280Z,13.20
2022-10-29T06:13:49.017Z,13.30
2022-10-29T06:18:50.774Z,13.30
2022-10-29T06:23:54.174Z,13.40
2022-10-29T06:28:55.986Z,13.50
2022-10-29T06:33:57.763Z,13.80
2022-10-29T06:38:59.499Z,13.90
2022-10-29T06:44:01.400Z,14.10
2022-10-29T06:49:03.198Z,14.20
2022-10-29T07:00:52.763Z,14.50
2022-10-29T07:05:59.424Z,14.70
2022-10-29T07:11:02.854Z,14.90
2022-10-29T07:16:05.366Z,15.00
2022-10-29T07:21:07.208Z,15.10
2022-10-29T07:26:08.981Z,15.20
2022-10-29T07:31:11.047Z,14.90
2022-10-29T07:36:12.786Z,15.00
2022-10-29T07:41:14.919Z,14.90
2022-10-29T07:46:16.716Z,15.10
2022-10-29T07:51:20.659Z,15.30
2022-10-29T07:56:22.858Z,15.70
2022-10-29T08:01:24.937Z,15.90
2022-10-29T08:06:26.748Z,16.10
2022-10-29T08:11:28.768Z,16.30
2022-10-29T08:16:30.604Z,16.80
2022-10-29T08:21:33.101Z,16.80
2022-10-29T08:26:35.229Z,16.80
2022-10-29T08:31:37.105Z,16.80
2022-10-29T08:36:38.956Z,16.90
2022-10-29T08:41:57.834Z,16.80
2022-10-29T08:47:05.302Z,16.80
2022-10-29T08:52:20.286Z,17.00
2022-10-29T08:57:25.357Z,17.10
2022-10-29T09:02:27.228Z,17.30
2022-10-29T09:07:43.699Z,17.40
2022-10-29T09:13:14.357Z,17.40
2022-10-29T09:18:32.769Z,17.40
2022-10-29T09:24:08.866Z,17.50
2022-10-29T09:29:29.100Z,17.60
2022-10-29T09:34:39.716Z,17.70
2022-10-29T09:39:44.190Z,18.00
2022-10-29T09:44:58.578Z,18.10
2022-10-29T09:50:08.808Z,18.50
2022-10-29T09:55:23.341Z,19.20
2022-10-29T10:00:30.468Z,20.00
2022-10-29T10:05:54.063Z,21.20
2022-10-29T10:10:57.254Z,22.10
2022-10-29T10:16:01.547Z,21.60
2022-10-29T10:21:08.312Z,21.40
2022-10-29T10:26:43.333Z,21.50
2022-10-29T10:31:49.316Z,21.60
2022-10-29T10:37:09.777Z,21.20
2022-10-29T10:42:27.408Z,20.40
2022-10-29T10:47:35.691Z,20.40
2022-10-29T10:52:37.769Z,20.40
2022-10-29T10:57:48.681Z,20.40
2022-10-29T11:03:08.769Z,21.50
2022-10-29T11:08:31.088Z,22.20
2022-10-29T11:13:34.354Z,21.60
2022-10-29T11:18:45.896Z,21.40
2022-10-29T11:23:47.615Z,21.60
2022-10-29T11:29:17.189Z,21.80
2022-10-29T11:34:30.219Z,21.70
2022-10-29T11:39:43.108Z,22.10
2022-10-29T11:44:45.248Z,22.30
2022-10-29T11:49:54.199Z,23.10
2022-10-29T11:55:19.414Z,25.90
2022-10-29T12:00:23.900Z,26.50
2022-10-29T12:05:56.085Z,27.50
2022-10-29T12:11:43.224Z,27.10
2022-10-29T12:16:56.529Z,26.10
2022-10-29T12:22:23.507Z,25.40
2022-10-29T12:27:32.646Z,25.10
2022-10-29T12:33:03.942Z,24.20
2022-10-29T12:38:33.036Z,23.80
2022-10-29T12:43:38.201Z,24.20
2022-10-29T12:48:57.801Z,25.00
2022-10-29T12:54:30.168Z,25.00
2022-10-29T12:59:35.400Z,25.00
2022-10-29T13:04:38.442Z,25.10
2022-10-29T13:09:43.036Z,24.60
2022-10-29T13:14:55.676Z,24.90
2022-10-29T13:20:20.557Z,24.80
2022-10-29T13:25:37.657Z,24.90
2022-10-29T13:30:41.537Z,24.90
2022-10-29T13:35:55.234Z,24.00
2022-10-29T13:41:09.663Z,23.30
2022-10-29T13:46:17.051Z,23.20
2022-10-29T13:51:42.815Z,22.90
2022-10-29T13:56:50.131Z,22.70
2022-10-29T14:02:03.344Z,22.80
2022-10-29T14:07:12.229Z,22.70
2022-10-29T14:12:20.435Z,22.90
2022-10-29T14:17:22.234Z,22.60
2022-10-29T14:22:23.930Z,22.50
2022-10-29T14:27:25.805Z,22.40
2022-10-29T14:32:27.630Z,22.20
2022-10-29T14:37:37.372Z,22.10
2022-10-29T14:42:44.928Z,21.90
2022-10-29T14:47:59.977Z,21.70
2022-10-29T14:53:08.083Z,21.40
2022-10-29T14:58:29.303Z,21.30
2022-10-29T15:03:33.715Z,21.00
2022-10-29T15:08:39.801Z,20.80
2022-10-29T15:13:41.634Z,20.60
2022-10-29T15:18:50.744Z,20.40
2022-10-29T15:24:04.887Z,20.40
2022-10-29T15:29:11.584Z,20.20
2022-10-29T15:34:21.079Z,20.10
2022-10-29T15:39:48.998Z,20.00
2022-10-29T15:50:20.163Z,19.70
2022-10-29T15:55:26.826Z,19.40
2022-10-29T16:00:30.201Z,19.10
2022-10-29T16:05:32.037Z,18.90
2022-10-29T16:10:33.881Z,18.80
2022-10-29T16:15:38.738Z,18.70
2022-10-29T16:20:44.551Z,18.60
2022-10-29T16:25:46.327Z,18.60
2022-10-29T16:30:54.005Z,18.40
2022-10-29T16:35:55.760Z,18.30
2022-10-29T16:40:57.593Z,18.10
2022-10-29T16:46:02.569Z,18.00
2022-10-29T16:51:07.533Z,18.00
2022-10-29T16:56:09.433Z,18.00
2022-10-29T17:01:11.278Z,17.90
2022-10-29T17:06:13.154Z,17.90
2022-10-29T17:11:15.069Z,17.90
2022-10-29T17:16:18.902Z,17.90
2022-10-29T17:21:20.918Z,17.90
2022-10-29T17:26:22.829Z,17.80
2022-10-29T17:31:26.477Z,17.70
2022-10-29T17:36:28.295Z,17.60
2022-10-29T17:41:30.042Z,17.50
2022-10-29T17:46:31.944Z,17.40
2022-10-29T17:51:33.703Z,17.40
2022-10-29T17:56:35.446Z,17.30
2022-10-29T18:01:37.342Z,17.30
2022-10-29T18:06:39.356Z,17.20
2022-10-29T18:11:41.122Z,17.20
2022-10-29T18:16:42.906Z,17.10
2022-10-29T18:21:44.659Z,16.90
2022-10-29T18:26:50.149Z,17.10
2022-10-29T18:31:51.978Z,17.10
2022-10-29T18:36:53.802Z,16.90
2022-10-29T18:41:55.620Z,16.80
2022-10-29T18:46:57.371Z,16.80
2022-10-29T18:51:59.131Z,16.70
2022-10-29T18:57:01.081Z,16.60
2022-10-29T19:02:02.971Z,16.60
2022-10-29T19:07:04.862Z,16.50
2022-10-29T19:12:06.806Z,16.40
2022-10-29T19:17:08.944Z,16.20
2022-10-29T19:22:10.725Z,16.10
2022-10-29T19:27:12.469Z,16.00
2022-10-29T19:32:14.181Z,16.00
2022-10-29T19:37:15.966Z,15.90
2022-10-29T19:42:17.757Z,15.80
2022-10-29T19:47:19.541Z,15.80
2022-10-29T19:52:21.538Z,15.80
2022-10-29T19:57:23.399Z,15.80
2022-10-29T20:02:25.276Z,15.80
2022-10-29T20:07:27.180Z,15.90
2022-10-29T20:12:29.013Z,15.80
2022-10-29T20:17:31.498Z,15.70
2022-10-29T20:22:33.584Z,15.60
2022-10-29T20:27:35.429Z,15.60
2022-10-29T20:32:37.293Z,15.50
2022-10-29T20:37:39.072Z,15.50
2022-10-29T20:42:40.990Z,15.40
2022-10-29T20:47:42.766Z,15.30
2022-10-29T20:52:48.542Z,15.30
2022-10-29T20:57:50.981Z,15.20
2022-10-29T21:02:52.736Z,15.20
2022-10-29T21:07:54.932Z,15.10
2022-10-29T21:12:57.563Z,15.10
2022-10-29T21:17:59.740Z,15.00
2022-10-29T21:23:01.472Z,14.90
2022-10-29T21:28:03.370Z,15.00
2022-10-29T21:33:05.132Z,15.10
2022-10-29T21:38:06.938Z,15.40
2022-10-29T21:43:08.714Z,15.10
2022-10-29T21:48:11.548Z,14.90
2022-10-29T21:53:13.571Z,14.70
2022-10-29T21:58:15.304Z,14.70
2022-10-29T22:03:17.190Z,14.70
2022-10-29T22:08:18.982Z,14.60
2022-10-29T22:13:20.780Z,14.60
2022-10-29T22:18:23.064Z,14.50
2022-10-29T22:23:24.867Z,14.50
2022-10-29T22:28:26.711Z,14.50
2022-10-29T22:33:29.411Z,14.40
2022-10-29T22:38:31.198Z,14.40
2022-10-29T22:43:33.162Z,14.40
2022-10-29T22:48:35.111Z,14.30
2022-10-29T22:53:36.986Z,14.30
2022-10-29T22:58:38.736Z,14.30
2022-10-29T23:03:41.545Z,14.30
2022-10-29T23:08:44.569Z,14.30
2022-10-29T23:13:47.990Z,14.30
2022-10-29T23:18:52.037Z,14.20
2022-10-29T23:23:54.365Z,14.20
2022-10-29T23:28:56.438Z,14.10
2022-10-29T23:33:58.930Z,14.00
2022-10-29T23:39:01.753Z,14.10
2022-10-29T23:44:03.656Z,14.10
2022-10-29T23:49:05.405Z,13.90
2022-10-29T23:54:07.266Z,14.20
2022-10-29T23:59:09.112Z,14.10
